Latest Weather Observations for Jandakot

IDW60801

Issued at 10:02 pm WST Saturday 5 September 2015 (issued every 30 minutes, with the page automatically refreshed every 10 minutes)

About weather observations | Map of weather stations | Latest weather observations for WA | Other Formats
Station Details ID: 009172 Name: JANDAKOT AERO Lat: -32.10 Lon: 115.88 Height: 30.0 m
Data from the previous 72 hours. | See also: Recent months at Jandakot
Date/Time
WST
Temp
°C
App
Temp
°C
Dew
Point
Rel
Hum
%
Delta-T
°C
Wind Press
QNH
hPa
Press
MSL
hPa
Rain
since 9 am
mm
Dir
 
Spd
km/h
Gust
km/h
Spd
kts
Gust
kts
05/10:00pm 10.5 8.9 6.4 76 1.9 SSE 4 7 2 4 1026.6 1026.6 0.0
05/09:30pm 11.6 9.7 6.5 71 2.4 S 6 9 3 5 1026.4 1026.4 0.0
05/09:00pm 11.5 9.4 6.6 72 2.3 S 7 9 4 5 1026.2 1026.2 0.0
05/08:30pm 11.7 9.4 5.6 66 2.8 S 7 9 4 5 1026.2 1026.2 0.0
05/08:00pm 13.2 10.5 5.5 59 3.6 SSE 9 13 5 7 1025.9 1025.9 0.0
05/07:30pm 14.1 10.5 5.1 54 4.2 S 13 17 7 9 1025.7 1025.7 0.0
05/07:00pm 14.6 10.5 4.4 50 4.7 SSW 15 22 8 12 1025.2 1025.2 0.0
05/06:30pm 14.7 11.3 6.1 56 4.1 S 13 19 7 10 1024.6 1024.6 0.0
05/06:00pm 14.4 11.4 6.0 57 4.0 SSW 11 17 6 9 1024.2 1024.2 0.0
05/05:30pm 15.7 11.0 5.1 49 5.0 SW 19 32 10 17 1023.8 1023.8 0.0
05/05:00pm 16.3 11.6 5.9 50 5.0 SSW 20 33 11 18 1023.2 1023.2 0.0
05/04:30pm 16.6 10.9 6.6 51 4.9 SSW 26 35 14 19 1022.9 1022.9 0.0
05/04:00pm 17.2 12.7 6.9 50 5.1 SSW 20 30 11 16 1022.6 1022.6 0.0
05/03:30pm 17.2 12.0 7.2 51 5.0 SSW 24 35 13 19 1022.3 1022.3 0.0
05/03:00pm 16.9 11.8 7.5 54 4.7 SSW 24 35 13 19 1021.9 1021.9 0.0
05/02:30pm 16.6 11.2 8.1 57 4.3 SW 26 35 14 19 1021.5 1021.5 0.0
05/02:00pm 17.6 12.3 6.9 49 5.3 SSW 24 33 13 18 1021.5 1021.5 0.0
05/01:30pm 17.6 12.0 7.2 50 5.2 SSW 26 37 14 20 1021.7 1021.7 0.0
05/01:00pm 16.6 12.2 9.0 61 3.9 SW 22 30 12 16 1022.0 1022.0 0.0
05/12:31pm 16.1 10.4 9.8 66 3.3 SSW 30 48 16 26 1022.0 1022.0 0.0
05/12:30pm 16.2 10.5 9.9 66 3.3 SSW 30 44 16 24 1022.0 1022.0 0.0
05/12:00pm 17.5 12.5 9.5 59 4.2 SW 26 37 14 20 1021.7 1021.7 0.0
05/11:30am 17.8 13.5 10.9 64 3.7 SW 24 35 13 19 1021.6 1021.6 0.0
05/11:00am 17.6 13.5 11.5 67 3.3 SW 24 33 13 18 1021.6 1021.6 0.0
05/10:30am 16.7 12.5 9.8 63 3.6 SW 22 33 12 18 1021.5 1021.5 0.0
05/10:00am 15.5 11.7 12.4 82 1.7 SW 24 37 13 20 1021.5 1021.5 0.0
05/09:30am 17.0 13.4 10.6 66 3.4 SW 20 30 11 16 1021.0 1021.0 0.0
05/09:00am 17.9 13.4 10.0 60 4.2 WSW 24 33 13 18 1020.6 1020.6 4.0
05/08:30am 16.9 13.2 10.1 64 3.6 WSW 20 26 11 14 1020.7 1020.7 4.0
05/08:00am 16.1 11.9 11.0 72 2.7 WSW 24 37 13 20 1020.4 1020.4 4.0
05/07:30am 15.3 13.2 11.0 75 2.3 WSW 13 20 7 11 1019.9 1019.9 4.0
05/07:00am 14.3 12.2 11.3 82 1.6 WSW 13 15 7 8 1019.5 1019.5 4.0
05/06:30am 14.2 12.0 10.8 80 1.8 WSW 13 19 7 10 1019.1 1019.1 3.8
05/06:00am 14.0 11.7 10.6 80 1.8 WSW 13 19 7 10 1018.9 1018.9 3.8
05/05:30am 13.1 10.7 10.2 82 1.5 W 13 13 7 7 1018.5 1018.5 3.8
05/05:00am 13.8 11.5 10.5 80 1.7 WSW 13 19 7 10 1018.2 1018.2 3.8
05/04:30am 13.9 11.3 10.7 81 1.7 WSW 15 19 8 10 1017.9 1017.9 3.8
05/04:00am 13.7 11.0 10.4 80 1.7 W 15 20 8 11 1017.6 1017.6 3.8
05/03:30am 13.8 11.1 10.5 80 1.7 WSW 15 17 8 9 1017.2 1017.2 3.8
05/03:00am 14.6 12.6 11.6 82 1.6 W 13 15 7 8 1017.2 1017.2 3.8
05/02:30am 14.9 13.1 12.1 83 1.5 WSW 13 17 7 9 1017.1 1017.1 3.8
05/02:00am 15.0 14.2 13.0 88 1.1 WSW 9 13 5 7 1017.2 1017.2 3.8
05/01:30am 15.1 14.0 13.1 88 1.1 WSW 11 15 6 8 1017.3 1017.3 3.8
05/01:00am 15.1 13.7 13.5 90 0.9 WSW 13 19 7 10 1017.1 1017.1 3.8
05/12:30am 14.4 14.3 13.9 97 0.3 N 7 9 4 5 1016.9 1016.9 3.8
05/12:00am 13.9 13.8 13.4 97 0.3 N 6 9 3 5 1016.9 1016.9 3.8
 
Date/Time
WST
Temp
°C
App
Temp
°C
Dew
Point
Rel
Hum
%
Delta-T
°C
Wind Press
QNH
hPa
Press
MSL
hPa
Rain
since 9 am
mm
Dir
 
Spd
km/h
Gust
km/h
Spd
kts
Gust
kts
04/11:30pm 14.5 14.6 13.8 96 0.4 NNW 6 7 3 4 1017.1 1017.1 3.8
04/11:00pm 14.4 14.2 13.5 94 0.5 SSW 7 11 4 6 1017.0 1017.0 3.8
04/10:30pm 14.9 12.4 14.2 96 0.4 WSW 20 30 11 16 1017.3 1017.3 3.8
04/10:00pm 16.1 13.9 14.5 90 0.9 WSW 19 28 10 15 1017.3 1017.3 2.2
04/09:30pm 16.4 13.8 15.0 91 0.8 WNW 22 33 12 18 1017.5 1017.5 2.2
04/09:00pm 16.6 13.9 14.7 88 1.1 NW 22 32 12 17 1017.4 1017.4 1.8
04/08:30pm 16.7 14.1 15.0 90 1.0 NW 22 35 12 19 1017.2 1017.2 1.6
04/08:00pm 16.7 13.6 14.6 87 1.2 NNW 24 37 13 20 1017.4 1017.4 0.4
04/07:30pm 17.4 14.7 13.5 78 2.2 NNW 20 28 11 15 1017.2 1017.2 0.0
04/07:00pm 17.3 14.6 13.0 76 2.4 NNW 19 28 10 15 1017.0 1017.0 0.0
04/06:30pm 17.5 14.1 12.4 72 2.8 NW 22 30 12 16 1017.0 1017.0 0.0
04/06:00pm 17.5 13.6 12.0 70 3.0 NNW 24 32 13 17 1016.4 1016.4 0.0
04/05:30pm 17.5 13.4 11.4 67 3.3 NW 24 32 13 17 1016.4 1016.4 0.0
04/05:00pm 17.7 13.5 11.0 65 3.6 NW 24 33 13 18 1015.9 1015.9 0.0
04/04:30pm 18.3 14.5 11.1 63 3.9 N 22 35 12 19 1014.7 1014.7 0.0
04/04:00pm 18.4 14.2 11.0 62 4.0 NNW 24 32 13 17 1015.3 1015.3 0.0
04/03:30pm 17.9 14.0 10.8 63 3.8 NNW 22 30 12 16 1015.9 1015.9 0.0
04/03:00pm 18.0 13.1 10.1 60 4.2 NW 26 33 14 18 1016.1 1016.1 0.0
04/02:30pm 18.3 12.5 9.6 57 4.6 NW 30 37 16 20 1016.2 1016.2 0.0
04/02:00pm 18.4 13.4 9.7 57 4.6 NW 26 35 14 19 1016.4 1016.4 0.0
04/01:30pm 18.6 13.1 9.0 53 5.0 WNW 28 35 15 19 1016.5 1016.5 0.0
04/01:00pm 18.9 13.7 8.9 52 5.2 NW 26 33 14 18 1016.7 1016.7 0.0
04/12:30pm 19.2 14.8 8.9 51 5.4 NW 22 32 12 17 1016.9 1016.9 0.0
04/12:00pm 19.0 13.7 8.4 50 5.5 NW 26 32 14 17 1017.2 1017.2 0.0
04/11:30am 18.5 13.8 7.7 49 5.5 NW 22 32 12 17 1017.2 1017.2 0.0
04/11:00am 18.2 14.0 7.5 49 5.4 NW 19 28 10 15 1017.2 1017.2 0.0
04/10:30am 17.7 15.0 8.8 56 4.6 N 13 17 7 9 1017.6 1017.6 0.0
04/10:00am 16.2 14.2 8.5 60 3.9 N 9 13 5 7 1017.9 1017.9 0.0
04/09:30am 15.2 13.0 7.8 61 3.7 N 9 13 5 7 1018.1 1018.1 0.0
04/09:00am 13.7 10.8 6.4 61 3.5 NNE 11 13 6 7 1017.9 1017.9 0.0
04/08:30am 12.2 8.7 5.3 62 3.2 NNE 13 15 7 8 1018.1 1018.1 0.0
04/08:00am 10.8 8.3 6.5 75 2.0 NE 9 11 5 6 1018.0 1018.0 0.0
04/07:30am 8.8 6.6 6.2 84 1.2 NNE 7 11 4 6 1017.8 1017.8 0.0
04/07:00am 5.9 3.2 3.8 86 0.9 NNE 7 9 4 5 1017.4 1017.4 0.0
04/06:30am 3.8 0.5 2.6 92 0.5 N 9 11 5 6 1016.9 1016.9 0.0
04/06:00am 4.2 1.3 2.5 89 0.7 N 7 9 4 5 1016.6 1016.6 0.0
04/05:30am 5.2 2.7 3.5 89 0.7 NNE 6 7 3 4 1016.5 1016.5 0.0
04/05:00am 6.1 3.0 3.7 84 1.0 NE 9 11 5 6 1016.1 1016.1 0.0
04/04:30am 3.6 0.3 2.3 91 0.5 ENE 9 13 5 7 1016.3 1016.3 0.0
04/04:00am 2.7 1.1 2.2 96 0.2 CALM 0 7 0 4 1016.4 1016.4 0.0
04/03:30am 3.5 0.8 2.5 93 0.4 NW 6 7 3 4 1016.6 1016.6 0.0
04/03:00am 3.7 2.1 2.4 91 0.5 CALM 0 0 0 0 1016.5 1016.5 0.0
04/02:30am 4.7 3.2 3.2 90 0.6 CALM 0 0 0 0 1016.7 1016.7 0.0
04/02:00am 4.6 3.1 3.1 90 0.6 CALM 0 0 0 0 1016.9 1016.9 0.0
04/01:30am 4.5 3.0 3.0 90 0.6 CALM 0 0 0 0 1017.3 1017.3 0.0
04/01:00am 5.9 4.5 3.8 86 0.9 CALM 0 0 0 0 1017.5 1017.5 0.0
04/12:30am 6.7 5.4 4.1 83 1.1 CALM 0 0 0 0 1017.9 1017.9 0.0
04/12:00am 7.1 4.9 5.1 87 0.9 ENE 6 7 3 4 1018.1 1018.1 0.0
 
Date/Time
WST
Temp
°C
App
Temp
°C
Dew
Point
Rel
Hum
%
Delta-T
°C
Wind Press
QNH
hPa
Press
MSL
hPa
Rain
since 9 am
mm
Dir
 
Spd
km/h
Gust
km/h
Spd
kts
Gust
kts
03/11:30pm 6.9 4.5 5.3 89 0.7 E 7 9 4 5 1018.5 1018.5 0.0
03/11:00pm 6.6 4.1 5.0 89 0.7 SE 7 9 4 5 1019.1 1019.1 0.0
03/10:30pm 6.7 4.1 4.4 85 1.0 SSE 7 9 4 5 1019.4 1019.4 0.0
03/10:00pm 7.3 5.1 5.3 87 0.9 S 6 7 3 4 1019.8 1019.8 0.0
03/09:30pm 7.7 5.9 5.2 84 1.1 SSW 4 7 2 4 1019.8 1019.8 0.0
03/09:00pm 8.3 7.4 5.9 85 1.1 CALM 0 0 0 0 1020.0 1020.0 0.0
03/08:30pm 9.4 7.4 6.1 80 1.5 S 6 7 3 4 1019.9 1019.9 0.0
03/08:00pm 9.8 8.9 5.9 77 1.8 CALM 0 0 0 0 1019.8 1019.8 0.0
03/07:30pm 10.8 8.6 6.3 74 2.1 S 7 9 4 5 1019.7 1019.7 0.0
03/07:00pm 12.3 10.8 6.6 68 2.7 SSW 4 6 2 3 1019.6 1019.6 0.0
03/06:30pm 13.7 11.7 6.9 63 3.3 SSW 7 9 4 5 1019.4 1019.4 0.0
03/06:00pm 15.9 12.8 5.4 49 5.0 SSW 11 13 6 7 1019.3 1019.3 0.0
03/05:30pm 17.6 14.7 6.7 48 5.4 SW 11 15 6 8 1019.4 1019.4 0.0
03/05:00pm 18.3 14.5 5.6 43 6.2 SW 15 20 8 11 1019.3 1019.3 0.0
03/04:30pm 19.2 14.8 4.6 38 7.0 SW 17 22 9 12 1019.4 1019.4 0.0
03/04:00pm 20.4 17.5 1.2 28 8.7 NE 6 9 3 5 1019.8 1019.8 0.0
03/03:30pm 20.1 16.0 -0.5 25 9.0 NNE 11 19 6 10 1020.0 1020.0 0.0
03/03:00pm 19.9 16.8 1.3 29 8.4 ENE 7 15 4 8 1020.1 1020.1 0.0
03/02:30pm 20.0 15.6 0.1 26 8.8 N 13 20 7 11 1020.6 1020.6 0.0
03/02:00pm 19.4 15.3 -0.4 26 8.6 NNW 11 15 6 8 1020.7 1020.7 0.0
03/01:30pm 19.1 14.9 1.6 31 7.9 NNE 13 20 7 11 1021.1 1021.1 0.0
03/01:00pm 18.8 14.7 2.1 32 7.6 NNE 13 20 7 11 1021.5 1021.5 0.0
03/12:30pm 18.5 13.5 1.6 32 7.6 NNE 17 24 9 13 1022.1 1022.1 0.0
03/12:00pm 18.4 14.4 3.0 36 7.1 NE 13 20 7 11 1022.5 1022.5 0.0
03/11:30am 18.1 14.0 4.1 39 6.6 ENE 15 26 8 14 1022.6 1022.6 0.0
03/11:00am 16.9 12.5 4.6 44 5.8 ENE 17 26 9 14 1023.3 1023.3 0.0
03/10:30am 16.0 10.5 4.1 45 5.5 NE 22 30 12 16 1023.5 1023.5 0.0
03/10:00am 15.7 10.3 4.3 46 5.3 NE 22 35 12 19 1023.6 1023.6 0.0
03/09:30am 14.3 8.5 4.5 51 4.5 ENE 24 32 13 17 1023.6 1023.6 0.0
03/09:00am 12.9 7.1 4.6 57 3.8 ENE 24 35 13 19 1023.9 1023.9 0.0
03/08:30am 12.2 7.8 5.0 61 3.3 ENE 17 24 9 13 1024.1 1024.1 0.0
03/08:00am 10.7 7.3 5.9 72 2.2 E 13 17 7 9 1024.4 1024.4 0.0
03/07:30am 9.4 5.6 5.9 79 1.6 E 15 19 8 10 1024.5 1024.5 0.0
03/07:00am 8.3 4.5 5.6 83 1.2 E 15 19 8 10 1024.4 1024.4 0.0
03/06:30am 7.7 3.9 5.7 87 0.9 ESE 15 19 8 10 1024.4 1024.4 0.0
03/06:00am 8.1 4.6 5.6 84 1.1 ESE 13 17 7 9 1024.2 1024.2 0.0
03/05:30am 8.4 5.0 6.0 85 1.1 E 13 17 7 9 1024.0 1024.0 0.0
03/05:00am 8.8 5.0 5.9 82 1.3 E 15 22 8 12 1023.7 1023.7 0.0
03/04:30am 8.6 5.3 6.2 85 1.1 E 13 20 7 11 1023.6 1023.6 0.0
03/04:00am 9.0 5.3 6.4 84 1.2 E 15 20 8 11 1023.9 1023.9 0.0
03/03:30am 8.9 5.6 6.5 85 1.1 E 13 20 7 11 1024.1 1024.1 0.0
03/03:00am 9.1 5.5 6.7 85 1.1 E 15 22 8 12 1024.2 1024.2 0.0
03/02:30am 9.4 5.1 6.8 84 1.2 ESE 19 24 10 13 1024.5 1024.5 0.0
03/02:00am 9.3 5.3 6.7 84 1.2 E 17 20 9 11 1024.5 1024.5 0.0
03/01:30am 9.1 6.5 6.3 83 1.3 ESE 9 15 5 8 1025.0 1025.0 0.0
03/01:00am 9.2 5.8 6.1 81 1.4 SE 13 19 7 10 1025.2 1025.2 0.0
03/12:30am 8.8 6.2 5.9 82 1.3 SSE 9 11 5 6 1025.5 1025.5 0.0
03/12:00am 9.7 6.3 5.7 76 1.8 SE 13 15 7 8 1025.4 1025.4 0.0
 
Date/Time
WST
Temp
°C
App
Temp
°C
Dew
Point
Rel
Hum
%
Delta-T
°C
Wind Press
QNH
hPa
Press
MSL
hPa
Rain
since 9 am
mm
Dir
 
Spd
km/h
Gust
km/h
Spd
kts
Gust
kts
02/11:30pm 10.9 8.3 6.2 73 2.2 SE 9 11 5 6 1026.0 1026.0 0.0
02/11:00pm 11.4 8.4 5.8 68 2.6 SSE 11 15 6 8 1026.1 1026.1 0.0
02/10:30pm 11.7 8.6 5.6 66 2.8 SSE 11 15 6 8 1026.3 1026.3 0.0

Other Formats:

Comma delimited format used in spreadsheet applications
http://www.bom.gov.au/fwo/IDW60801/IDW60801.94609.axf

JavaScript Object Notation format (JSON) in row-major order
http://www.bom.gov.au/fwo/IDW60801/IDW60801.94609.json